createdAt,value
2022-12-17T00:00:02.293Z,-7.94
2022-12-17T00:01:02.451Z,-7.95
2022-12-17T00:02:02.276Z,-7.98
2022-12-17T00:03:02.338Z,-8.02
2022-12-17T00:04:02.392Z,-8.05
2022-12-17T00:05:02.263Z,-8.05
2022-12-17T00:06:02.261Z,-8.09
2022-12-17T00:07:02.280Z,-8.14
2022-12-17T00:08:02.196Z,-8.14
2022-12-17T00:09:02.242Z,-8.13
2022-12-17T00:10:02.179Z,-8.14
2022-12-17T00:11:02.185Z,-8.10
2022-12-17T00:12:02.178Z,-8.08
2022-12-17T00:13:02.211Z,-8.08
2022-12-17T00:14:02.126Z,-8.05
2022-12-17T00:15:02.133Z,-8.03
2022-12-17T00:16:02.155Z,-8.05
2022-12-17T00:17:02.121Z,-8.05
2022-12-17T00:18:02.828Z,-8.06
2022-12-17T00:19:02.151Z,-8.09
2022-12-17T00:20:02.053Z,-8.13
2022-12-17T00:21:02.092Z,-8.19
2022-12-17T00:22:02.027Z,-8.24
2022-12-17T00:23:02.036Z,-8.27
2022-12-17T00:24:02.032Z,-8.32
2022-12-17T00:25:02.107Z,-8.32
2022-12-17T00:26:02.001Z,-8.35
2022-12-17T00:27:02.023Z,-8.37
2022-12-17T00:28:01.976Z,-8.38
2022-12-17T00:29:01.977Z,-8.38
2022-12-17T00:30:01.955Z,-8.35
2022-12-17T00:31:02.027Z,-8.31
2022-12-17T00:32:01.900Z,-8.27
2022-12-17T00:33:01.944Z,-8.21
2022-12-17T00:34:02.137Z,-8.03
2022-12-17T00:35:01.890Z,-7.84
2022-12-17T00:36:01.875Z,-7.69
2022-12-17T00:37:01.987Z,-7.62
2022-12-17T00:38:01.895Z,-7.65
2022-12-17T00:39:01.874Z,-7.65
2022-12-17T00:40:02.545Z,-7.69
2022-12-17T00:41:01.846Z,-7.77
2022-12-17T00:42:01.783Z,-7.87
2022-12-17T00:43:01.907Z,-7.95
2022-12-17T00:44:01.784Z,-8.05
2022-12-17T00:45:01.799Z,-8.13
2022-12-17T00:46:01.738Z,-8.13
2022-12-17T00:47:01.822Z,-8.10
2022-12-17T00:48:01.725Z,-8.09
2022-12-17T00:49:01.757Z,-8.09
2022-12-17T00:50:01.751Z,-8.09
2022-12-17T00:51:01.729Z,-8.06
2022-12-17T00:52:01.652Z,-8.06
2022-12-17T00:53:01.701Z,-8.06
2022-12-17T00:54:01.629Z,-8.10
2022-12-17T00:55:01.673Z,-8.16
2022-12-17T00:56:01.627Z,-8.19
2022-12-17T00:57:01.633Z,-8.24
2022-12-17T00:58:01.617Z,-8.27
2022-12-17T00:59:02.338Z,-8.27
2022-12-17T01:00:01.563Z,-8.27
2022-12-17T01:01:01.705Z,-8.31
2022-12-17T01:02:01.653Z,-8.31
2022-12-17T01:03:01.589Z,-8.27
2022-12-17T01:04:01.540Z,-8.27
2022-12-17T01:05:01.529Z,-8.24
2022-12-17T01:06:01.508Z,-8.17
2022-12-17T01:07:01.646Z,-8.14
2022-12-17T01:08:01.462Z,-8.17
2022-12-17T01:09:01.511Z,-8.19
2022-12-17T01:10:01.436Z,-8.24
2022-12-17T01:11:01.441Z,-8.31
2022-12-17T01:12:01.432Z,-8.35
2022-12-17T01:13:01.471Z,-8.38
2022-12-17T01:14:01.431Z,-8.42
2022-12-17T01:15:01.425Z,-8.37
2022-12-17T01:16:01.400Z,-8.20
2022-12-17T01:17:01.374Z,-8.03
2022-12-17T01:18:01.366Z,-7.91
2022-12-17T01:19:01.430Z,-7.88
2022-12-17T01:20:01.306Z,-7.91
2022-12-17T01:21:01.354Z,-7.98
2022-12-17T01:22:01.286Z,-8.02
2022-12-17T01:23:01.311Z,-8.06
2022-12-17T01:24:01.313Z,-8.14
2022-12-17T01:25:01.406Z,-8.19
2022-12-17T01:26:01.270Z,-8.27
2022-12-17T01:27:01.281Z,-8.37
2022-12-17T01:28:01.214Z,-8.45
2022-12-17T01:29:01.267Z,-8.52
2022-12-17T01:30:01.189Z,-8.52
2022-12-17T01:31:01.230Z,-8.47
2022-12-17T01:32:01.223Z,-8.45
2022-12-17T01:33:01.211Z,-8.47
2022-12-17T01:34:01.135Z,-8.52
2022-12-17T01:35:01.159Z,-8.56
2022-12-17T01:36:01.146Z,-8.60
2022-12-17T01:37:01.276Z,-8.62
2022-12-17T01:38:01.117Z,-8.68
2022-12-17T01:39:01.135Z,-8.71
2022-12-17T01:40:01.059Z,-8.74
2022-12-17T01:41:01.109Z,-8.77
2022-12-17T01:42:01.038Z,-8.77
2022-12-17T01:43:01.169Z,-8.77
2022-12-17T01:44:01.043Z,-8.77
2022-12-17T01:45:01.038Z,-8.76
2022-12-17T01:46:01.043Z,-8.76
2022-12-17T01:47:01.035Z,-8.71
2022-12-17T01:48:00.962Z,-8.63
2022-12-17T01:49:01.009Z,-8.62
2022-12-17T01:50:01.924Z,-8.59
2022-12-17T01:51:00.985Z,-8.58
2022-12-17T01:52:00.922Z,-8.53
2022-12-17T01:53:00.964Z,-8.53
2022-12-17T01:54:00.891Z,-8.56
2022-12-17T01:55:01.050Z,-8.60
2022-12-17T01:56:00.885Z,-8.62
2022-12-17T01:57:00.881Z,-8.55
2022-12-17T01:58:00.867Z,-8.47
2022-12-17T01:59:00.889Z,-8.39
2022-12-17T02:00:00.810Z,-8.34
2022-12-17T02:01:00.935Z,-8.31
2022-12-17T02:02:01.035Z,-8.31
2022-12-17T02:03:00.990Z,-8.32
2022-12-17T02:04:00.790Z,-8.35
2022-12-17T02:05:00.782Z,-8.19
2022-12-17T02:06:00.768Z,-7.81
2022-12-17T02:07:00.846Z,-7.58
2022-12-17T02:08:00.747Z,-7.30
2022-12-17T02:09:00.758Z,-7.15
2022-12-17T02:10:00.705Z,-7.00
2022-12-17T02:11:00.707Z,-7.00
2022-12-17T02:12:00.696Z,-7.06
2022-12-17T02:13:00.727Z,-7.12
2022-12-17T02:14:00.668Z,-7.13
2022-12-17T02:15:00.696Z,-7.16
2022-12-17T02:16:00.660Z,-7.26
2022-12-17T02:17:00.686Z,-7.42
2022-12-17T02:18:00.614Z,-7.97
2022-12-17T02:19:00.644Z,-8.23
2022-12-17T02:20:00.592Z,-8.63
2022-12-17T02:21:00.635Z,-8.77
2022-12-17T02:22:00.557Z,-8.68
2022-12-17T02:23:00.554Z,-8.59
2022-12-17T02:24:00.554Z,-8.50
2022-12-17T02:25:00.557Z,-8.44
2022-12-17T02:26:00.524Z,-8.34
2022-12-17T02:27:00.542Z,-8.20
2022-12-17T02:28:00.470Z,-8.13
2022-12-17T02:29:00.520Z,-8.05
2022-12-17T02:30:00.448Z,-7.87
2022-12-17T02:31:00.487Z,-7.76
2022-12-17T02:32:00.541Z,-7.68
2022-12-17T02:33:00.437Z,-7.72
2022-12-17T02:34:00.434Z,-7.80
2022-12-17T02:35:00.443Z,-7.84
2022-12-17T02:36:00.387Z,-7.88
2022-12-17T02:37:00.493Z,-7.97
2022-12-17T02:38:00.375Z,-8.08
2022-12-17T02:39:00.385Z,-8.13
2022-12-17T02:40:00.326Z,-8.14
2022-12-17T02:41:00.359Z,-8.08
2022-12-17T02:42:00.288Z,-8.05
2022-12-17T02:43:00.392Z,-7.97
2022-12-17T02:44:00.314Z,-7.88
2022-12-17T02:45:00.296Z,-7.95
2022-12-17T02:46:01.082Z,-8.02
2022-12-17T02:47:00.287Z,-8.08
2022-12-17T02:48:00.949Z,-8.23
2022-12-17T02:49:00.295Z,-8.35
2022-12-17T02:50:00.329Z,-8.44
2022-12-17T02:51:00.212Z,-8.50
2022-12-17T02:52:00.195Z,-8.58
2022-12-17T02:53:00.217Z,-8.63
2022-12-17T02:54:00.150Z,-8.68
2022-12-17T02:55:00.204Z,-8.70
2022-12-17T02:56:00.156Z,-8.73
2022-12-17T02:57:00.154Z,-8.77
2022-12-17T02:58:00.152Z,-8.80
2022-12-17T02:59:00.155Z,-8.84
2022-12-17T03:00:00.109Z,-8.89
2022-12-17T03:01:00.181Z,-8.92
2022-12-17T03:02:00.186Z,-8.89
2022-12-17T03:03:00.154Z,-8.78
2022-12-17T03:04:00.052Z,-8.70
2022-12-17T03:05:06.608Z,-8.59
2022-12-17T03:06:01.140Z,-8.52
2022-12-17T03:07:00.079Z,-8.44
2022-12-17T03:07:59.997Z,-8.39
2022-12-17T03:09:00.020Z,-8.35
2022-12-17T03:09:59.958Z,-8.34
2022-12-17T03:11:00.001Z,-8.29
2022-12-17T03:11:59.991Z,-8.26
2022-12-17T03:12:59.948Z,-8.20
2022-12-17T03:13:59.931Z,-8.21
2022-12-17T03:14:59.948Z,-8.23
2022-12-17T03:15:59.878Z,-8.31
2022-12-17T03:17:00.686Z,-8.41
2022-12-17T03:17:59.884Z,-8.45
2022-12-17T03:18:59.874Z,-8.45
2022-12-17T03:19:59.859Z,-8.37
2022-12-17T03:20:59.865Z,-8.23
2022-12-17T03:21:59.832Z,-8.10
2022-12-17T03:22:59.844Z,-7.99
2022-12-17T03:23:59.816Z,-7.88
2022-12-17T03:24:59.795Z,-7.80
2022-12-17T03:25:59.792Z,-7.74
2022-12-17T03:26:59.796Z,-7.63
2022-12-17T03:27:59.735Z,-7.54
2022-12-17T03:28:59.773Z,-7.48
2022-12-17T03:29:59.831Z,-7.45
2022-12-17T03:30:59.748Z,-7.44
2022-12-17T03:31:59.703Z,-7.44
2022-12-17T03:32:59.713Z,-7.45
2022-12-17T03:33:59.690Z,-7.59
2022-12-17T03:34:59.710Z,-7.76
2022-12-17T03:35:59.666Z,-7.66
2022-12-17T03:37:00.404Z,-7.63
2022-12-17T03:37:59.632Z,-7.54
2022-12-17T03:38:59.626Z,-7.52
2022-12-17T03:39:59.610Z,-7.58
2022-12-17T03:41:00.580Z,-7.63
2022-12-17T03:42:00.653Z,-7.77
2022-12-17T03:42:59.574Z,-7.95
2022-12-17T03:43:59.559Z,-8.09
2022-12-17T03:44:59.560Z,-8.24
2022-12-17T03:45:59.592Z,-8.37
2022-12-17T03:46:59.557Z,-8.47
2022-12-17T03:47:59.535Z,-8.56
2022-12-17T03:48:59.548Z,-8.50
2022-12-17T03:49:59.471Z,-8.41
2022-12-17T03:50:59.481Z,-8.35
2022-12-17T03:51:59.469Z,-8.35
2022-12-17T03:52:59.462Z,-8.38
2022-12-17T03:53:59.552Z,-8.39
2022-12-17T03:54:59.460Z,-8.41
2022-12-17T03:55:59.392Z,-8.27
2022-12-17T03:56:59.412Z,-8.23
2022-12-17T03:57:59.390Z,-8.24
2022-12-17T03:58:59.419Z,-8.29
2022-12-17T03:59:59.385Z,-8.37
2022-12-17T04:00:59.395Z,-8.38
2022-12-17T04:01:59.438Z,-8.39
2022-12-17T04:02:59.440Z,-8.29
2022-12-17T04:03:59.312Z,-8.08
2022-12-17T04:04:59.305Z,-7.91
2022-12-17T04:05:59.411Z,-7.77
2022-12-17T04:06:59.324Z,-7.69
2022-12-17T04:07:59.247Z,-7.65
2022-12-17T04:08:59.287Z,-7.62
2022-12-17T04:09:59.221Z,-7.60
2022-12-17T04:10:59.234Z,-7.63
2022-12-17T04:11:59.341Z,-7.66
2022-12-17T04:12:59.212Z,-7.59
2022-12-17T04:13:59.219Z,-7.52
2022-12-17T04:14:59.142Z,-7.51
2022-12-17T04:15:59.225Z,-7.58
2022-12-17T04:16:59.139Z,-7.65
2022-12-17T04:17:59.204Z,-7.74
2022-12-17T04:18:59.148Z,-7.84
2022-12-17T04:19:59.116Z,-7.88
2022-12-17T04:20:59.122Z,-7.94
2022-12-17T04:21:59.099Z,-7.99
2022-12-17T04:22:59.062Z,-8.10
2022-12-17T04:23:59.206Z,-8.19
2022-12-17T04:24:59.038Z,-8.26
2022-12-17T04:25:59.075Z,-8.32
2022-12-17T04:26:59.046Z,-8.34
2022-12-17T04:27:59.028Z,-8.34
2022-12-17T04:28:58.982Z,-8.37
2022-12-17T04:29:59.141Z,-8.41
2022-12-17T04:30:59.043Z,-8.48
2022-12-17T04:31:58.967Z,-8.48
2022-12-17T04:32:58.967Z,-8.41
2022-12-17T04:33:58.962Z,-8.35
2022-12-17T04:34:58.912Z,-8.38
2022-12-17T04:35:58.978Z,-8.45
2022-12-17T04:36:58.885Z,-8.53
2022-12-17T04:37:58.926Z,-8.58
2022-12-17T04:38:58.873Z,-8.56
2022-12-17T04:39:58.886Z,-8.53
2022-12-17T04:40:58.858Z,-8.48
2022-12-17T04:41:58.972Z,-8.47
2022-12-17T04:42:58.823Z,-8.44
2022-12-17T04:44:03.007Z,-8.50
2022-12-17T04:44:58.808Z,-8.62
2022-12-17T04:45:58.859Z,-8.81
2022-12-17T04:46:58.756Z,-8.95
2022-12-17T04:47:58.815Z,-9.02
2022-12-17T04:48:58.724Z,-9.06
2022-12-17T04:49:58.768Z,-9.08
2022-12-17T04:50:58.737Z,-9.08
2022-12-17T04:51:58.712Z,-8.98
2022-12-17T04:52:58.710Z,-8.86
2022-12-17T04:53:58.824Z,-8.74
2022-12-17T04:54:58.648Z,-8.66
2022-12-17T04:55:58.692Z,-8.60
2022-12-17T04:56:58.648Z,-8.56
2022-12-17T04:57:58.666Z,-8.55
2022-12-17T04:58:58.639Z,-8.53
2022-12-17T04:59:58.745Z,-8.53
2022-12-17T05:00:58.594Z,-8.52
2022-12-17T05:01:58.794Z,-8.52
2022-12-17T05:02:58.827Z,-8.53
2022-12-17T05:03:58.634Z,-8.55
2022-12-17T05:04:58.551Z,-8.58
2022-12-17T05:05:58.575Z,-8.58
2022-12-17T05:06:58.524Z,-8.59
2022-12-17T05:07:58.544Z,-8.56
2022-12-17T05:08:58.498Z,-8.53
2022-12-17T05:09:58.543Z,-8.50
2022-12-17T05:12:09.648Z,-8.45
2022-12-17T05:13:09.482Z,-8.48
2022-12-17T05:14:09.462Z,-8.52
2022-12-17T05:15:09.459Z,-8.52
2022-12-17T05:16:09.494Z,-8.50
2022-12-17T05:17:09.413Z,-8.52
2022-12-17T05:18:09.480Z,-8.52
2022-12-17T05:19:09.385Z,-8.48
2022-12-17T05:20:10.119Z,-8.45
2022-12-17T05:21:09.370Z,-8.44
2022-12-17T05:22:09.356Z,-8.42
2022-12-17T05:23:09.318Z,-8.42
2022-12-17T05:24:09.413Z,-8.41
2022-12-17T05:25:09.321Z,-8.41
2022-12-17T05:26:09.324Z,-8.41
2022-12-17T05:27:09.293Z,-8.41
2022-12-17T05:28:09.282Z,-8.39
2022-12-17T05:29:15.407Z,-8.37
2022-12-17T05:30:10.321Z,-8.37
2022-12-17T05:31:09.244Z,-8.35
2022-12-17T05:32:09.261Z,-8.34
2022-12-17T05:33:09.225Z,-8.32
2022-12-17T05:34:09.212Z,-8.32
2022-12-17T05:35:09.201Z,-8.31
2022-12-17T05:36:09.240Z,-8.26
2022-12-17T05:37:09.141Z,-8.26
2022-12-17T05:38:09.184Z,-8.24
2022-12-17T05:39:09.167Z,-8.23
2022-12-17T05:40:12.514Z,-8.23
2022-12-17T05:41:09.098Z,-8.20
2022-12-17T05:42:09.175Z,-8.17
2022-12-17T05:43:09.073Z,-8.19
2022-12-17T05:44:09.124Z,-8.16
2022-12-17T05:45:09.076Z,-8.14
2022-12-17T05:46:09.139Z,-8.13
2022-12-17T05:47:09.077Z,-8.09
2022-12-17T05:48:09.169Z,-8.08
2022-12-17T05:49:08.998Z,-8.06
2022-12-17T05:50:09.027Z,-8.05
2022-12-17T05:51:09.008Z,-8.02
2022-12-17T05:52:09.006Z,-7.99
2022-12-17T05:53:08.974Z,-7.98
2022-12-17T05:54:08.990Z,-7.99
2022-12-17T05:55:08.955Z,-7.97
2022-12-17T05:56:08.932Z,-7.94
2022-12-17T05:57:08.893Z,-7.90
2022-12-17T05:58:08.929Z,-7.86
2022-12-17T05:59:08.872Z,-7.83
2022-12-17T06:00:08.935Z,-7.79
2022-12-17T06:01:08.878Z,-7.74
2022-12-17T06:02:08.871Z,-7.68
2022-12-17T06:03:08.951Z,-7.63
2022-12-17T06:04:08.931Z,-7.58
2022-12-17T06:05:08.791Z,-7.52
2022-12-17T06:06:08.878Z,-7.48
2022-12-17T06:07:08.761Z,-7.44
2022-12-17T06:08:08.808Z,-7.39
2022-12-17T06:09:08.768Z,-7.37
2022-12-17T06:10:08.753Z,-7.30
2022-12-17T06:11:08.714Z,-7.26
2022-12-17T06:12:08.779Z,-7.20
2022-12-17T06:13:08.721Z,-7.19
2022-12-17T06:14:08.705Z,-7.12
2022-12-17T06:15:08.695Z,-7.06
2022-12-17T06:16:08.753Z,-6.95
2022-12-17T06:17:08.642Z,-6.90
2022-12-17T06:18:13.583Z,-6.85
2022-12-17T06:19:09.612Z,-6.81
2022-12-17T06:20:08.664Z,-6.77
2022-12-17T06:21:08.619Z,-6.73
2022-12-17T06:22:08.606Z,-6.70
2022-12-17T06:23:08.600Z,-6.67
2022-12-17T06:24:08.617Z,-6.63
2022-12-17T06:25:08.533Z,-6.61
2022-12-17T06:26:08.580Z,-6.58
2022-12-17T06:27:08.542Z,-6.55
2022-12-17T06:28:08.527Z,-6.54
2022-12-17T06:29:08.485Z,-6.52
2022-12-17T06:30:08.561Z,-6.50
2022-12-17T06:31:08.496Z,-6.47
2022-12-17T06:32:08.501Z,-6.44
2022-12-17T06:33:08.471Z,-6.40
2022-12-17T06:34:08.455Z,-6.37
2022-12-17T06:35:08.442Z,-6.34
2022-12-17T06:36:08.542Z,-6.31
2022-12-17T06:37:08.386Z,-6.30
2022-12-17T06:38:08.438Z,-6.27
2022-12-17T06:39:08.367Z,-6.21
2022-12-17T06:40:08.402Z,-6.18
2022-12-17T06:41:08.363Z,-6.16
2022-12-17T06:42:08.390Z,-6.16
2022-12-17T06:43:08.315Z,-6.12
2022-12-17T06:44:08.353Z,-6.12
2022-12-17T06:45:08.322Z,-6.09
2022-12-17T06:46:08.306Z,-6.08
2022-12-17T06:47:09.322Z,-6.05
2022-12-17T06:48:08.397Z,-6.02
2022-12-17T06:49:08.237Z,-6.02
2022-12-17T06:50:08.283Z,-6.02
2022-12-17T06:51:08.208Z,-6.01
2022-12-17T06:52:08.932Z,-6.01
2022-12-17T06:53:08.214Z,-5.97
2022-12-17T06:54:08.358Z,-5.98
2022-12-17T06:55:08.195Z,-5.97
2022-12-17T06:56:08.176Z,-5.95
2022-12-17T06:57:08.141Z,-5.94
2022-12-17T06:58:08.177Z,-5.95
2022-12-17T06:59:08.138Z,-5.95
2022-12-17T07:00:08.164Z,-5.97
2022-12-17T07:01:08.178Z,-5.97
2022-12-17T07:02:08.157Z,-5.95
2022-12-17T07:03:14.463Z,-5.92
2022-12-17T07:04:09.049Z,-5.95
2022-12-17T07:05:08.060Z,-5.94
2022-12-17T07:06:08.079Z,-5.95
2022-12-17T07:07:08.039Z,-5.95
2022-12-17T07:08:08.027Z,-5.95
2022-12-17T07:09:08.035Z,-5.95
2022-12-17T07:10:14.326Z,-5.97
2022-12-17T07:11:08.014Z,-6.00
2022-12-17T07:12:08.062Z,-6.02
2022-12-17T07:13:07.961Z,-6.06
2022-12-17T07:14:07.957Z,-6.09
2022-12-17T07:15:07.959Z,-6.11
2022-12-17T07:16:07.941Z,-6.11
2022-12-17T07:17:07.909Z,-6.12
2022-12-17T07:18:07.922Z,-6.13
2022-12-17T07:19:07.892Z,-6.16
2022-12-17T07:20:08.575Z,-6.18
2022-12-17T07:21:07.865Z,-6.18
2022-12-17T07:22:07.812Z,-6.18
2022-12-17T07:23:07.858Z,-6.21
2022-12-17T07:24:07.822Z,-6.23
2022-12-17T07:25:07.803Z,-6.23
2022-12-17T07:26:07.790Z,-6.21
2022-12-17T07:27:07.783Z,-6.24
2022-12-17T07:28:07.769Z,-6.24
2022-12-17T07:29:07.780Z,-6.24
2022-12-17T07:30:08.052Z,-6.27
2022-12-17T07:31:07.733Z,-6.24
2022-12-17T07:32:07.776Z,-6.24
2022-12-17T07:33:07.734Z,-6.23
2022-12-17T07:34:07.667Z,-6.21
2022-12-17T07:35:07.717Z,-6.19
2022-12-17T07:36:07.684Z,-6.18
2022-12-17T07:37:07.653Z,-6.16
2022-12-17T07:38:07.662Z,-6.16
2022-12-17T07:39:07.635Z,-6.15
2022-12-17T07:40:07.629Z,-6.13
2022-12-17T07:41:07.643Z,-6.15
2022-12-17T07:42:07.588Z,-6.09
2022-12-17T07:43:07.611Z,-6.06
2022-12-17T07:44:07.552Z,-6.02
2022-12-17T07:45:08.246Z,-6.01
2022-12-17T07:46:07.600Z,-5.98
2022-12-17T07:47:07.571Z,-5.97
2022-12-17T07:48:07.605Z,-5.95
2022-12-17T07:49:07.506Z,-5.94
2022-12-17T07:50:07.503Z,-5.92
2022-12-17T07:51:07.534Z,-5.91
2022-12-17T07:52:07.465Z,-5.88
2022-12-17T07:53:07.494Z,-5.84
2022-12-17T07:54:07.444Z,-5.83
2022-12-17T07:55:07.457Z,-5.82
2022-12-17T07:56:07.387Z,-5.79
2022-12-17T07:57:07.407Z,-5.76
2022-12-17T07:58:07.392Z,-5.73
2022-12-17T07:59:07.396Z,-5.73
2022-12-17T08:00:07.424Z,-5.73
2022-12-17T08:01:07.420Z,-5.70
2022-12-17T08:02:07.424Z,-5.70
2022-12-17T08:03:07.482Z,-5.70
2022-12-17T08:04:07.298Z,-5.69
2022-12-17T08:05:07.312Z,-5.69
2022-12-17T08:06:07.413Z,-5.63
2022-12-17T08:07:12.108Z,-5.62
2022-12-17T08:08:08.265Z,-5.61
2022-12-17T08:09:07.273Z,-5.59
2022-12-17T08:10:07.213Z,-5.58
2022-12-17T08:11:07.285Z,-5.58
2022-12-17T08:12:07.229Z,-5.58
2022-12-17T08:13:10.953Z,-5.56
2022-12-17T08:14:08.905Z,-5.55
2022-12-17T08:15:07.169Z,-5.55
2022-12-17T08:16:07.205Z,-5.56
2022-12-17T08:17:07.195Z,-5.52
2022-12-17T08:18:07.131Z,-5.51
2022-12-17T08:19:07.141Z,-5.55
2022-12-17T08:20:07.107Z,-5.58
2022-12-17T08:21:07.129Z,-5.56
2022-12-17T08:22:07.052Z,-5.54
2022-12-17T08:23:07.099Z,-5.52
2022-12-17T08:24:07.350Z,-5.51
2022-12-17T08:25:07.050Z,-5.52
2022-12-17T08:26:07.026Z,-5.54
2022-12-17T08:27:07.027Z,-5.54
2022-12-17T08:28:11.149Z,-5.55
2022-12-17T08:29:08.037Z,-5.52
2022-12-17T08:30:06.982Z,-5.52
2022-12-17T08:31:07.038Z,-5.51
2022-12-17T08:32:06.921Z,-5.52
2022-12-17T08:33:06.931Z,-5.55
2022-12-17T08:34:08.186Z,-5.56
2022-12-17T08:35:06.968Z,-5.56
2022-12-17T08:36:06.893Z,-5.58
2022-12-17T08:37:06.894Z,-5.56
2022-12-17T08:38:06.871Z,-5.56
2022-12-17T08:39:06.889Z,-5.58
2022-12-17T08:40:06.847Z,-5.55
2022-12-17T08:41:06.981Z,-5.52
2022-12-17T08:42:06.802Z,-5.55
2022-12-17T08:43:06.847Z,-5.51
2022-12-17T08:44:07.494Z,-5.52
2022-12-17T08:45:06.803Z,-5.51
2022-12-17T08:46:06.859Z,-5.54
2022-12-17T08:47:06.795Z,-5.52
2022-12-17T08:48:06.751Z,-5.51
2022-12-17T08:49:06.775Z,-5.47
2022-12-17T08:50:06.703Z,-5.45
2022-12-17T08:51:06.718Z,-5.47
2022-12-17T08:52:06.708Z,-5.47
2022-12-17T08:53:06.827Z,-5.44
2022-12-17T08:54:06.635Z,-5.44
2022-12-17T08:55:06.672Z,-5.45
2022-12-17T08:56:06.608Z,-5.44
2022-12-17T08:57:06.624Z,-5.45
2022-12-17T08:58:06.615Z,-5.43
2022-12-17T08:59:06.626Z,-5.40
2022-12-17T09:00:06.582Z,-5.38
2022-12-17T09:01:07.432Z,-5.34
2022-12-17T09:02:06.753Z,-5.34
2022-12-17T09:03:06.630Z,-5.38
2022-12-17T09:04:06.511Z,-5.40
2022-12-17T09:05:06.567Z,-5.38
2022-12-17T09:06:06.513Z,-5.40
2022-12-17T09:07:06.507Z,-5.44
2022-12-17T09:08:07.183Z,-5.40
2022-12-17T09:09:06.501Z,-5.37
2022-12-17T09:10:06.427Z,-5.31
2022-12-17T09:11:06.503Z,-5.31
2022-12-17T09:12:06.407Z,-5.27
2022-12-17T09:13:06.417Z,-5.22
2022-12-17T09:14:06.413Z,-5.19
2022-12-17T09:15:06.398Z,-5.12
2022-12-17T09:16:06.384Z,-5.08
2022-12-17T09:17:06.525Z,-5.11
2022-12-17T09:18:06.327Z,-5.08
2022-12-17T09:19:06.374Z,-5.11
2022-12-17T09:20:06.307Z,-5.11
2022-12-17T09:21:06.318Z,-5.11
2022-12-17T09:22:06.306Z,-5.11
2022-12-17T09:23:06.353Z,-5.12
2022-12-17T09:24:06.251Z,-5.07
2022-12-17T09:25:06.269Z,-5.03
2022-12-17T09:26:06.256Z,-5.05
2022-12-17T09:27:06.248Z,-5.14
2022-12-17T09:28:06.236Z,-5.17
2022-12-17T09:29:06.363Z,-5.19
2022-12-17T09:30:06.179Z,-5.22
2022-12-17T09:31:06.267Z,-5.23
2022-12-17T09:32:06.155Z,-5.27
2022-12-17T09:33:06.170Z,-5.25
2022-12-17T09:34:06.157Z,-5.27
2022-12-17T09:35:06.180Z,-5.19
2022-12-17T09:36:06.133Z,-5.14
2022-12-17T09:37:06.149Z,-5.12
2022-12-17T09:38:06.081Z,-5.08
2022-12-17T09:39:06.171Z,-5.08
2022-12-17T09:40:06.078Z,-5.08
2022-12-17T09:41:06.219Z,-5.14
2022-12-17T09:42:06.031Z,-5.14
2022-12-17T09:43:06.068Z,-5.11
2022-12-17T09:44:06.001Z,-5.08
2022-12-17T09:45:06.018Z,-5.08
2022-12-17T09:46:06.032Z,-5.00
2022-12-17T09:47:06.043Z,-4.91
2022-12-17T09:48:05.978Z,-4.79
2022-12-17T09:49:05.991Z,-4.69
2022-12-17T09:50:05.923Z,-4.62
2022-12-17T09:51:05.969Z,-4.68
2022-12-17T09:52:05.900Z,-4.68
2022-12-17T09:53:06.023Z,-4.69
2022-12-17T09:54:05.899Z,-4.80
2022-12-17T09:55:05.921Z,-4.85
2022-12-17T09:56:05.855Z,-4.80
2022-12-17T09:57:05.863Z,-4.79
2022-12-17T09:58:05.850Z,-4.80
2022-12-17T09:59:05.870Z,-4.77
2022-12-17T10:00:05.829Z,-4.82
2022-12-17T10:01:05.856Z,-4.85
2022-12-17T10:02:05.988Z,-4.89
2022-12-17T10:03:05.913Z,-4.86
2022-12-17T10:04:05.744Z,-4.83
2022-12-17T10:05:05.794Z,-4.87
2022-12-17T10:06:05.752Z,-4.83
2022-12-17T10:07:05.739Z,-4.79
2022-12-17T10:08:05.732Z,-4.82
2022-12-17T10:09:05.744Z,-4.80
2022-12-17T10:10:05.673Z,-4.71
2022-12-17T10:11:05.744Z,-4.69
2022-12-17T10:12:05.656Z,-4.68
2022-12-17T10:13:05.661Z,-4.65
2022-12-17T10:14:05.655Z,-4.62
2022-12-17T10:15:05.644Z,-4.57
2022-12-17T10:16:05.665Z,-4.55
2022-12-17T10:17:11.381Z,-4.48
2022-12-17T10:18:06.567Z,-4.41
2022-12-17T10:19:05.613Z,-4.37
2022-12-17T10:20:05.549Z,-4.40
2022-12-17T10:21:05.556Z,-4.47
2022-12-17T10:22:05.554Z,-4.61
2022-12-17T10:23:05.570Z,-4.64
2022-12-17T10:24:05.515Z,-4.65
2022-12-17T10:25:05.534Z,-4.68
2022-12-17T10:26:05.467Z,-4.69
2022-12-17T10:27:05.485Z,-4.73
2022-12-17T10:28:05.465Z,-4.71
2022-12-17T10:29:05.594Z,-4.69
2022-12-17T10:30:05.419Z,-4.66
2022-12-17T10:31:05.492Z,-4.65
2022-12-17T10:32:05.388Z,-4.66
2022-12-17T10:33:05.409Z,-4.61
2022-12-17T10:34:05.385Z,-4.64
2022-12-17T10:35:05.918Z,-4.64
2022-12-17T10:36:05.367Z,-4.58
2022-12-17T10:37:05.383Z,-4.58
2022-12-17T10:38:05.323Z,-4.58
2022-12-17T10:39:05.357Z,-4.61
2022-12-17T10:40:05.290Z,-4.57
2022-12-17T10:41:05.330Z,-4.50
2022-12-17T10:42:05.287Z,-4.48
2022-12-17T10:43:05.307Z,-4.51
2022-12-17T10:44:06.189Z,-4.50
2022-12-17T10:45:05.252Z,-4.48
2022-12-17T10:46:05.250Z,-4.43
2022-12-17T10:47:05.263Z,-4.41
2022-12-17T10:48:05.229Z,-4.37
2022-12-17T10:49:11.016Z,-4.32
2022-12-17T10:50:06.181Z,-4.26
2022-12-17T10:51:05.207Z,-4.23
2022-12-17T10:52:05.131Z,-4.22
2022-12-17T10:53:05.267Z,-4.25
2022-12-17T10:54:05.138Z,-4.25
2022-12-17T10:55:05.122Z,-4.28
2022-12-17T10:56:05.111Z,-4.30
2022-12-17T10:57:05.125Z,-4.33
2022-12-17T10:58:05.052Z,-4.33
2022-12-17T10:59:05.112Z,-4.29
2022-12-17T11:00:05.058Z,-4.28
2022-12-17T11:01:05.109Z,-4.20
2022-12-17T11:02:05.082Z,-4.23
2022-12-17T11:03:05.223Z,-4.19
2022-12-17T11:04:04.973Z,-4.18
2022-12-17T11:05:05.023Z,-4.15
2022-12-17T11:06:04.981Z,-4.14
2022-12-17T11:07:04.966Z,-4.14
2022-12-17T11:08:04.960Z,-4.15
2022-12-17T11:09:04.970Z,-4.25
2022-12-17T11:10:09.275Z,-4.28
2022-12-17T11:11:06.083Z,-4.25
2022-12-17T11:12:07.428Z,-4.26
2022-12-17T11:13:04.896Z,-4.28
2022-12-17T11:14:04.880Z,-4.29
2022-12-17T11:15:04.874Z,-4.32
2022-12-17T11:16:04.908Z,-4.32
2022-12-17T11:17:04.924Z,-4.30
2022-12-17T11:18:10.903Z,-4.30
2022-12-17T11:19:05.786Z,-4.30
2022-12-17T11:20:04.833Z,-4.33
2022-12-17T11:21:04.792Z,-4.36
2022-12-17T11:22:04.776Z,-4.36
2022-12-17T11:23:04.802Z,-4.33
2022-12-17T11:24:04.755Z,-4.29
2022-12-17T11:25:04.708Z,-4.30
2022-12-17T11:26:04.762Z,-4.26
2022-12-17T11:27:04.965Z,-4.26
2022-12-17T11:28:07.743Z,-4.23
2022-12-17T11:30:26.259Z,-4.15
2022-12-17T11:31:35.730Z,-4.08
2022-12-17T11:32:25.599Z,-4.05
2022-12-17T11:33:24.454Z,-4.02
2022-12-17T11:34:19.575Z,-3.96
2022-12-17T11:35:50.383Z,-3.96
2022-12-17T11:37:33.944Z,-3.96
2022-12-17T11:42:30.758Z,-4.02
2022-12-17T11:43:17.780Z,-4.07
2022-12-17T11:44:07.855Z,-4.05
2022-12-17T11:45:09.132Z,-4.04
2022-12-17T11:46:11.996Z,-4.02
2022-12-17T11:47:19.061Z,-4.04
2022-12-17T11:51:08.560Z,-3.89
2022-12-17T11:56:12.694Z,-3.76
2022-12-17T12:15:21.291Z,-3.29
2022-12-17T12:16:44.152Z,-3.28
2022-12-17T12:30:19.242Z,-3.26
2022-12-17T12:35:22.712Z,-3.31
2022-12-17T13:22:28.211Z,-3.53
2022-12-17T13:28:13.504Z,-3.51
2022-12-17T13:31:22.075Z,-3.54
2022-12-17T13:32:28.571Z,-3.60
2022-12-17T13:33:54.095Z,-3.60
2022-12-17T13:34:49.721Z,-3.61
2022-12-17T13:37:58.008Z,-3.56
2022-12-17T13:38:48.873Z,-3.57
2022-12-17T13:42:46.865Z,-3.51
2022-12-17T13:43:40.708Z,-3.50
2022-12-17T13:45:52.696Z,-3.46
2022-12-17T13:46:48.102Z,-3.46
2022-12-17T13:47:59.165Z,-3.41
2022-12-17T13:48:45.919Z,-3.41
2022-12-17T13:51:39.929Z,-3.49
2022-12-17T13:52:06.452Z,-3.50
2022-12-17T13:59:18.219Z,-3.62
2022-12-17T14:00:15.288Z,-3.64
2022-12-17T14:01:20.658Z,-3.64
2022-12-17T14:04:05.972Z,-3.60
2022-12-17T14:04:25.322Z,-3.61
2022-12-17T14:05:21.855Z,-3.64
2022-12-17T14:13:04.637Z,-3.70
2022-12-17T14:13:44.456Z,-3.72
2022-12-17T14:14:46.920Z,-3.72
2022-12-17T14:15:44.764Z,-3.76
2022-12-17T14:16:48.965Z,-3.81
2022-12-17T14:17:43.782Z,-3.84
2022-12-17T14:18:41.379Z,-3.87
2022-12-17T14:19:40.628Z,-3.90
2022-12-17T14:20:40.932Z,-3.91
2022-12-17T14:21:42.134Z,-3.96
2022-12-17T14:22:43.845Z,-3.98
2022-12-17T14:23:37.235Z,-4.01
2022-12-17T14:24:59.980Z,-4.02
2022-12-17T14:25:36.202Z,-4.04
2022-12-17T14:26:36.249Z,-4.04
2022-12-17T14:27:36.180Z,-4.04
2022-12-17T14:28:36.604Z,-4.04
2022-12-17T14:29:36.133Z,-4.05
2022-12-17T14:30:36.156Z,-4.05
2022-12-17T14:31:36.469Z,-4.08
2022-12-17T14:32:36.209Z,-4.11
2022-12-17T14:33:36.083Z,-4.12
2022-12-17T14:34:36.034Z,-4.12
2022-12-17T14:35:36.021Z,-4.14
2022-12-17T14:36:36.024Z,-4.15
2022-12-17T14:37:35.974Z,-4.18
2022-12-17T14:38:38.783Z,-4.19
2022-12-17T14:39:35.954Z,-4.19
2022-12-17T14:40:35.991Z,-4.20
2022-12-17T14:41:35.953Z,-4.22
2022-12-17T14:42:35.952Z,-4.23
2022-12-17T14:43:35.922Z,-4.26
2022-12-17T14:44:36.143Z,-4.29
2022-12-17T14:45:36.001Z,-4.32
2022-12-17T14:46:35.857Z,-4.33
2022-12-17T14:47:35.920Z,-4.37
2022-12-17T14:48:36.075Z,-4.41
2022-12-17T14:49:35.847Z,-4.41
2022-12-17T14:50:35.886Z,-4.46
2022-12-17T14:51:35.839Z,-4.50
2022-12-17T14:52:35.808Z,-4.57
2022-12-17T14:53:35.815Z,-4.62
2022-12-17T14:54:35.749Z,-4.69
2022-12-17T14:55:35.795Z,-4.82